Terminal Aerodrome Forecast
Issued by NWS

Home | Current Version | Previous Version | Graphics & Text | Print | Product List | Glossary On
Versions: 1 2 3 4 5 6 7 8 9 10 11 12 13 14 15 16 17 18 19 20 21 22
000
FTUS43 KABR 302000 AAA
TAFPIR
TAF AMD
KPIR 302057Z 3021/0118 18022G30KT P6SM VCSH BKN050
     FM010200 24012KT P6SM BKN100
     FM011500 30010KT P6SM BKN250=

USA.gov is the U.S. government's official web portal to all federal, state and local government web resources and services.